createdAt,value
2018-05-04T00:02:28.143Z,7.97
2018-05-04T00:04:56.520Z,6.23
2018-05-04T00:07:25.024Z,8.97
2018-05-04T00:09:53.231Z,7.87
2018-05-04T00:12:21.549Z,7.90
2018-05-04T00:14:50.130Z,6.17
2018-05-04T00:17:18.309Z,10.37
2018-05-04T00:19:46.757Z,8.03
2018-05-04T00:22:15.382Z,7.47
2018-05-04T00:24:43.605Z,4.70
2018-05-04T00:27:11.796Z,6.40
2018-05-04T00:29:40.400Z,6.27
2018-05-04T00:32:08.608Z,6.37
2018-05-04T00:34:56.138Z,8.57
2018-05-04T00:37:27.528Z,7.47
2018-05-04T00:39:56.756Z,8.83
2018-05-04T00:42:24.970Z,8.20
2018-05-04T00:44:53.158Z,9.23
2018-05-04T00:47:21.348Z,9.20
2018-05-04T00:49:50.104Z,7.73
2018-05-04T00:52:18.379Z,8.03
2018-05-04T00:54:46.563Z,8.93
2018-05-04T00:57:15.194Z,9.70
2018-05-04T00:59:43.393Z,9.07
2018-05-04T01:02:11.644Z,8.57
2018-05-04T01:04:40.356Z,10.97
2018-05-04T01:07:08.580Z,9.23
2018-05-04T01:09:36.838Z,9.57
2018-05-04T01:12:05.110Z,8.33
2018-05-04T01:14:33.326Z,7.53
2018-05-04T01:17:01.895Z,7.90
2018-05-04T01:19:30.120Z,11.50
2018-05-04T01:21:58.323Z,10.27
2018-05-04T01:24:27.028Z,8.37
2018-05-04T01:26:55.249Z,11.17
2018-05-04T01:29:23.457Z,12.33
2018-05-04T01:31:51.898Z,12.80
2018-05-04T01:34:20.110Z,7.10
2018-05-04T01:36:48.440Z,12.63
2018-05-04T01:39:17.002Z,14.97
2018-05-04T01:41:45.238Z,10.00
2018-05-04T01:44:13.653Z,6.80
2018-05-04T01:46:42.527Z,7.87
2018-05-04T01:49:10.730Z,11.90
2018-05-04T01:51:39.254Z,13.43
2018-05-04T01:54:07.731Z,8.70
2018-05-04T01:56:35.950Z,11.03
2018-05-04T01:59:04.173Z,14.83
2018-05-04T02:01:32.924Z,12.73
2018-05-04T02:04:01.193Z,10.07
2018-05-04T02:06:29.356Z,8.97
2018-05-04T02:08:57.955Z,8.30
2018-05-04T02:11:27.582Z,10.87
2018-05-04T02:13:55.797Z,10.03
2018-05-04T02:16:24.148Z,10.27
2018-05-04T02:18:52.778Z,12.17
2018-05-04T02:21:21.049Z,11.60
2018-05-04T02:23:49.332Z,13.80
2018-05-04T02:26:20.409Z,10.60
2018-05-04T02:28:53.095Z,15.90
2018-05-04T02:31:21.356Z,10.90
2018-05-04T02:33:49.594Z,11.73
2018-05-04T02:36:18.220Z,9.53
2018-05-04T02:38:46.424Z,10.03
2018-05-04T02:41:14.767Z,15.37
2018-05-04T02:43:43.465Z,12.33
2018-05-04T02:46:11.663Z,12.83
2018-05-04T02:48:40.972Z,11.43
2018-05-04T02:51:09.509Z,11.33
2018-05-04T02:53:38.018Z,14.07
2018-05-04T02:56:06.231Z,12.27
2018-05-04T02:58:34.444Z,11.30
2018-05-04T03:01:03.241Z,14.03
2018-05-04T03:03:31.460Z,14.10
2018-05-04T03:05:59.657Z,17.93
2018-05-04T03:08:28.263Z,14.83
2018-05-04T03:10:56.482Z,14.47
2018-05-04T03:13:24.745Z,10.83
2018-05-04T03:15:53.536Z,12.73
2018-05-04T03:18:21.723Z,13.87
2018-05-04T03:20:49.977Z,14.10
2018-05-04T03:23:18.684Z,16.13
2018-05-04T03:25:46.907Z,12.47
2018-05-04T03:28:15.120Z,11.90
2018-05-04T03:30:43.795Z,12.13
2018-05-04T03:33:12.121Z,9.10
2018-05-04T03:35:40.318Z,11.47
2018-05-04T03:38:09.031Z,14.30
2018-05-04T03:40:37.220Z,9.53
2018-05-04T03:43:05.419Z,11.70
2018-05-04T03:45:34.170Z,14.47
2018-05-04T03:48:02.383Z,14.30
2018-05-04T03:50:30.626Z,12.93
2018-05-04T03:52:59.189Z,11.93
2018-05-04T03:55:27.417Z,16.13
2018-05-04T03:58:07.598Z,14.23
2018-05-04T04:00:47.608Z,15.23
2018-05-04T04:03:27.751Z,15.53
2018-05-04T04:05:55.940Z,13.93
2018-05-04T04:08:24.650Z,13.33
2018-05-04T04:10:52.885Z,10.67
2018-05-04T04:13:21.073Z,13.60
2018-05-04T04:15:49.883Z,14.87
2018-05-04T04:18:18.907Z,13.07
2018-05-04T04:20:47.111Z,10.97
2018-05-04T04:23:16.753Z,9.33
2018-05-04T04:25:45.011Z,11.90
2018-05-04T04:28:13.204Z,13.13
2018-05-04T04:30:41.522Z,16.40
2018-05-04T04:33:10.242Z,14.17
2018-05-04T04:35:38.460Z,12.40
2018-05-04T04:38:06.661Z,10.60
2018-05-04T04:40:35.327Z,11.03
2018-05-04T04:43:03.506Z,10.93
2018-05-04T04:45:31.730Z,13.57
2018-05-04T04:48:00.418Z,15.07
2018-05-04T04:50:28.614Z,14.70
2018-05-04T04:52:57.020Z,13.77
2018-05-04T04:55:25.717Z,17.67
2018-05-04T04:57:54.300Z,13.20
2018-05-04T05:00:22.881Z,16.13
2018-05-04T05:02:51.449Z,16.63
2018-05-04T05:05:19.675Z,18.40
2018-05-04T05:07:48.125Z,15.00
2018-05-04T05:10:17.267Z,17.40
2018-05-04T05:12:51.003Z,17.57
2018-05-04T05:15:19.248Z,22.67
2018-05-04T05:17:47.439Z,15.83
2018-05-04T05:20:16.175Z,15.60
2018-05-04T05:22:44.380Z,17.33
2018-05-04T05:25:12.645Z,15.53
2018-05-04T05:27:41.416Z,15.97
2018-05-04T05:30:09.634Z,19.10
2018-05-04T05:32:37.830Z,21.70
2018-05-04T05:35:06.431Z,25.97
2018-05-04T05:37:34.666Z,20.30
2018-05-04T05:40:03.007Z,17.47
2018-05-04T05:42:32.091Z,15.80
2018-05-04T05:45:00.339Z,15.83
2018-05-04T05:47:28.684Z,14.60
2018-05-04T05:49:57.239Z,15.90
2018-05-04T05:52:25.488Z,20.23
2018-05-04T05:54:54.692Z,14.43
2018-05-04T05:57:23.117Z,18.33
2018-05-04T05:59:51.870Z,17.33
2018-05-04T06:02:20.082Z,20.40
2018-05-04T06:04:48.313Z,14.70
2018-05-04T06:07:16.982Z,20.00
2018-05-04T06:09:45.204Z,18.47
2018-05-04T06:12:14.034Z,15.50
2018-05-04T06:14:43.062Z,15.83
2018-05-04T06:17:11.295Z,19.63
2018-05-04T06:19:39.507Z,16.80
2018-05-04T06:22:08.032Z,16.50
2018-05-04T06:24:36.303Z,13.43
2018-05-04T06:27:04.504Z,16.30
2018-05-04T06:29:33.190Z,16.67
2018-05-04T06:32:01.460Z,21.43
2018-05-04T06:34:29.696Z,16.13
2018-05-04T06:36:58.326Z,14.67
2018-05-04T06:39:26.570Z,16.53
2018-05-04T06:41:54.776Z,16.27
2018-05-04T06:44:23.465Z,16.40
2018-05-04T06:46:51.764Z,13.33
2018-05-04T06:49:19.962Z,18.87
2018-05-04T06:51:48.493Z,12.70
2018-05-04T06:54:16.713Z,15.93
2018-05-04T06:56:44.888Z,12.33
2018-05-04T06:59:13.761Z,19.37
2018-05-04T07:01:42.012Z,11.67
2018-05-04T07:04:10.230Z,11.90
2018-05-04T07:06:39.114Z,11.63
2018-05-04T07:09:07.763Z,13.47
2018-05-04T07:11:35.974Z,14.23
2018-05-04T07:14:04.212Z,12.67
2018-05-04T07:16:32.896Z,16.47
2018-05-04T07:19:01.117Z,15.27
2018-05-04T07:21:29.320Z,11.30
2018-05-04T07:23:57.888Z,16.10
2018-05-04T07:26:26.108Z,14.80
2018-05-04T07:28:54.329Z,10.17
2018-05-04T07:31:23.114Z,7.40
2018-05-04T07:33:51.325Z,9.93
2018-05-04T07:36:20.663Z,10.47
2018-05-04T07:38:49.581Z,9.27
2018-05-04T07:41:21.190Z,8.70
2018-05-04T07:43:49.514Z,6.90
2018-05-04T07:46:18.280Z,11.33
2018-05-04T07:48:46.576Z,8.17
2018-05-04T07:51:14.727Z,7.63
2018-05-04T07:53:43.010Z,7.37
2018-05-04T07:56:11.281Z,8.47
2018-05-04T07:58:40.445Z,9.87
2018-05-04T08:01:08.946Z,8.30
2018-05-04T08:03:37.201Z,8.77
2018-05-04T08:06:06.093Z,5.13
2018-05-04T08:08:35.791Z,13.03
2018-05-04T08:11:11.138Z,8.77
2018-05-04T08:13:40.371Z,8.13
2018-05-04T08:16:09.059Z,7.33
2018-05-04T08:18:37.278Z,7.00
2018-05-04T08:21:05.510Z,5.30
2018-05-04T08:23:34.021Z,6.23
2018-05-04T08:26:02.224Z,6.50
2018-05-04T08:28:30.414Z,8.17
2018-05-04T08:30:59.150Z,17.57
2018-05-04T08:33:27.358Z,9.10
2018-05-04T08:35:55.562Z,6.03
2018-05-04T08:38:24.237Z,4.30
2018-05-04T08:40:52.466Z,12.10
2018-05-04T08:43:20.665Z,8.00
2018-05-04T08:45:49.307Z,8.03
2018-05-04T08:48:17.647Z,13.37
2018-05-04T08:50:45.755Z,10.67
2018-05-04T08:53:14.456Z,6.70
2018-05-04T08:55:42.641Z,10.87
2018-05-04T08:58:10.821Z,7.77
2018-05-04T09:00:39.552Z,8.07
2018-05-04T09:03:07.776Z,14.97
2018-05-04T09:05:36.060Z,8.50
2018-05-04T09:08:04.690Z,7.63
2018-05-04T09:10:32.867Z,6.87
2018-05-04T09:13:01.139Z,7.47
2018-05-04T09:15:29.848Z,7.17
2018-05-04T09:17:58.042Z,6.50
2018-05-04T09:20:26.230Z,5.57
2018-05-04T09:22:55.085Z,5.43
2018-05-04T09:25:23.291Z,11.77
2018-05-04T09:27:51.500Z,5.13
2018-05-04T09:30:20.186Z,7.67
2018-05-04T09:32:48.393Z,5.60
2018-05-04T09:35:16.594Z,9.57
2018-05-04T09:37:45.397Z,7.23
2018-05-04T09:40:13.590Z,7.93
2018-05-04T09:42:41.792Z,7.93
2018-05-04T09:45:10.480Z,11.00
2018-05-04T09:47:38.706Z,8.03
2018-05-04T09:50:06.893Z,8.63
2018-05-04T09:52:35.573Z,8.87
2018-05-04T09:55:03.774Z,9.13
2018-05-04T09:57:31.969Z,10.50
2018-05-04T10:00:00.727Z,7.90
2018-05-04T10:02:28.920Z,7.00
2018-05-04T10:04:57.160Z,7.87
2018-05-04T10:07:25.975Z,6.63
2018-05-04T10:09:54.148Z,7.93
2018-05-04T10:12:22.367Z,7.53
2018-05-04T10:14:51.097Z,11.03
2018-05-04T10:17:19.312Z,8.00
2018-05-04T10:19:47.506Z,6.83
2018-05-04T10:22:16.186Z,5.70
2018-05-04T10:24:45.250Z,7.30
2018-05-04T10:27:13.442Z,11.13
2018-05-04T10:29:42.009Z,7.73
2018-05-04T10:32:10.228Z,13.70
2018-05-04T10:34:38.468Z,8.73
2018-05-04T10:37:07.027Z,9.07
2018-05-04T10:39:35.313Z,7.27
2018-05-04T10:42:03.591Z,14.83
2018-05-04T10:44:32.114Z,5.50
2018-05-04T10:47:00.292Z,6.67
2018-05-04T10:49:28.673Z,4.43
2018-05-04T10:51:57.221Z,6.77
2018-05-04T10:54:25.457Z,5.93
2018-05-04T10:56:53.751Z,6.20
2018-05-04T10:59:22.451Z,6.97
2018-05-04T11:01:50.669Z,11.50
2018-05-04T11:04:18.853Z,12.57
2018-05-04T11:06:47.540Z,9.40
2018-05-04T11:09:15.764Z,7.03
2018-05-04T11:11:44.111Z,8.90
2018-05-04T11:14:12.705Z,7.33
2018-05-04T11:16:40.921Z,6.97
2018-05-04T11:19:09.229Z,12.07
2018-05-04T11:21:37.839Z,7.17
2018-05-04T11:24:06.048Z,9.33
2018-05-04T11:26:34.265Z,6.23
2018-05-04T11:29:02.975Z,9.27
2018-05-04T11:31:31.158Z,6.90
2018-05-04T11:33:59.568Z,8.63
2018-05-04T11:36:28.199Z,8.50
2018-05-04T11:38:56.562Z,8.63
2018-05-04T11:41:24.753Z,8.53
2018-05-04T11:43:53.321Z,8.07
2018-05-04T11:46:21.534Z,7.40
2018-05-04T11:48:49.852Z,8.43
2018-05-04T11:51:18.512Z,6.40
2018-05-04T11:53:46.699Z,7.10
2018-05-04T11:56:15.057Z,7.97
2018-05-04T11:58:43.722Z,8.73
2018-05-04T12:01:11.959Z,9.07
2018-05-04T12:03:40.220Z,8.27
2018-05-04T12:06:08.933Z,8.33
2018-05-04T12:08:37.126Z,8.67
2018-05-04T12:11:05.412Z,6.07
2018-05-04T12:13:34.036Z,7.10
2018-05-04T12:16:02.266Z,8.10
2018-05-04T12:18:30.595Z,9.57
2018-05-04T12:20:59.326Z,6.97
2018-05-04T12:23:27.576Z,8.87
2018-05-04T12:25:55.775Z,9.97
2018-05-04T12:28:24.467Z,5.50
2018-05-04T12:30:52.649Z,9.47
2018-05-04T12:33:20.952Z,7.90
2018-05-04T12:35:49.588Z,7.57
2018-05-04T12:38:17.776Z,10.07
2018-05-04T12:40:45.963Z,9.40
2018-05-04T12:43:14.555Z,6.83
2018-05-04T12:45:42.732Z,7.83
2018-05-04T12:50:53.574Z,6.83
2018-05-04T12:53:21.854Z,5.97
2018-05-04T12:55:50.505Z,11.23
2018-05-04T12:58:18.751Z,6.80
2018-05-04T13:00:47.087Z,5.97
2018-05-04T13:03:15.872Z,6.47
2018-05-04T13:05:54.163Z,14.47
2018-05-04T13:08:45.729Z,7.40
2018-05-04T13:11:37.773Z,9.13
2018-05-04T13:14:16.922Z,7.37
2018-05-04T13:16:47.403Z,10.03
2018-05-04T13:19:16.472Z,6.53
2018-05-04T13:21:45.705Z,6.10
2018-05-04T13:24:14.190Z,7.57
2018-05-04T13:26:42.450Z,7.40
2018-05-04T13:29:11.004Z,7.03
2018-05-04T13:31:39.232Z,6.97
2018-05-04T13:34:07.556Z,7.87
2018-05-04T13:36:36.173Z,7.00
2018-05-04T13:39:04.367Z,7.07
2018-05-04T13:41:32.798Z,8.40
2018-05-04T13:44:01.310Z,6.33
2018-05-04T13:46:30.215Z,5.77
2018-05-04T13:48:58.417Z,8.87
2018-05-04T13:51:27.336Z,6.43
2018-05-04T13:53:55.955Z,10.20
2018-05-04T13:56:24.144Z,7.33
2018-05-04T13:58:52.416Z,6.85
2018-05-04T14:01:21.136Z,9.00
2018-05-04T14:03:49.395Z,6.68
2018-05-04T14:06:18.908Z,5.62
2018-05-04T14:08:47.633Z,6.20
2018-05-04T14:11:16.997Z,5.75
2018-05-04T14:13:46.545Z,8.30
2018-05-04T14:16:15.520Z,7.65
2018-05-04T14:18:44.838Z,6.93
2018-05-04T14:21:13.193Z,7.82
2018-05-04T14:23:41.795Z,11.60
2018-05-04T14:26:11.160Z,6.23
2018-05-04T14:28:39.338Z,6.18
2018-05-04T14:31:07.574Z,5.83
2018-05-04T14:33:36.255Z,7.97
2018-05-04T14:36:04.462Z,6.73
2018-05-04T14:38:32.935Z,8.60
2018-05-04T14:41:01.449Z,7.23
2018-05-04T14:43:30.863Z,7.30
2018-05-04T14:45:59.042Z,6.63
2018-05-04T14:48:27.715Z,7.03
2018-05-04T14:50:55.937Z,7.22
2018-05-04T14:53:24.136Z,8.75
2018-05-04T14:55:52.957Z,7.50
2018-05-04T14:58:21.208Z,7.87
2018-05-04T15:00:49.422Z,10.05
2018-05-04T15:03:17.973Z,8.60
2018-05-04T15:05:46.227Z,6.57
2018-05-04T15:08:14.537Z,8.10
2018-05-04T15:10:43.131Z,8.20
2018-05-04T15:13:11.319Z,5.78
2018-05-04T15:15:39.773Z,5.97
2018-05-04T15:18:08.301Z,8.40
2018-05-04T15:20:36.509Z,9.77
2018-05-04T15:23:04.803Z,8.73
2018-05-04T15:25:33.445Z,6.80
2018-05-04T15:28:01.646Z,9.50
2018-05-04T15:30:30.014Z,7.20
2018-05-04T15:32:58.541Z,9.03
2018-05-04T15:35:26.731Z,11.47
2018-05-04T15:37:55.088Z,13.63
2018-05-04T15:40:23.787Z,11.33
2018-05-04T15:42:51.989Z,12.93
2018-05-04T15:45:20.247Z,10.23
2018-05-04T15:47:48.915Z,9.50
2018-05-04T15:50:23.382Z,9.23
2018-05-04T15:52:51.583Z,8.13
2018-05-04T15:55:19.831Z,10.33
2018-05-04T15:57:48.386Z,9.67
2018-05-04T16:00:16.590Z,9.87
2018-05-04T16:02:44.870Z,10.97
2018-05-04T16:05:13.634Z,8.80
2018-05-04T16:07:42.042Z,6.80
2018-05-04T16:10:10.732Z,7.30
2018-05-04T16:12:39.362Z,7.57
2018-05-04T16:15:07.579Z,12.57
2018-05-04T16:17:35.860Z,13.67
2018-05-04T16:20:04.503Z,6.87
2018-05-04T16:22:32.711Z,11.20
2018-05-04T16:25:01.065Z,8.60
2018-05-04T16:27:29.685Z,7.27
2018-05-04T16:29:57.868Z,9.17
2018-05-04T16:32:26.366Z,9.17
2018-05-04T16:34:54.885Z,11.80
2018-05-04T16:37:23.088Z,8.23
2018-05-04T16:39:52.060Z,7.00
2018-05-04T16:42:20.920Z,9.57
2018-05-04T16:44:49.203Z,11.33
2018-05-04T16:47:22.397Z,9.33
2018-05-04T16:49:51.145Z,8.53
2018-05-04T16:52:19.338Z,9.07
2018-05-04T16:54:47.538Z,11.47
2018-05-04T16:57:16.341Z,8.30
2018-05-04T16:59:44.614Z,10.70
2018-05-04T17:02:12.806Z,15.97
2018-05-04T17:04:41.767Z,11.97
2018-05-04T17:07:10.033Z,10.23
2018-05-04T17:09:38.830Z,10.77
2018-05-04T17:12:07.733Z,8.30
2018-05-04T17:14:36.626Z,10.43
2018-05-04T17:17:04.848Z,10.67
2018-05-04T17:19:33.752Z,10.57
2018-05-04T17:22:02.733Z,12.53
2018-05-04T17:24:31.771Z,11.13
2018-05-04T17:26:59.986Z,10.10
2018-05-04T17:29:28.909Z,11.43
2018-05-04T17:31:57.705Z,12.00
2018-05-04T17:34:26.659Z,10.97
2018-05-04T17:36:54.824Z,9.77
2018-05-04T17:39:23.898Z,12.90
2018-05-04T17:41:53.200Z,9.73
2018-05-04T17:44:22.295Z,16.07
2018-05-04T17:46:50.647Z,18.43
2018-05-04T17:49:18.843Z,13.57
2018-05-04T17:51:47.681Z,17.60
2018-05-04T17:54:16.728Z,15.90
2018-05-04T17:56:44.944Z,12.70
2018-05-04T17:59:13.769Z,13.47
2018-05-04T18:01:42.666Z,11.87
2018-05-04T18:04:11.782Z,13.43
2018-05-04T18:06:40.009Z,12.00
2018-05-04T18:09:08.800Z,11.10
2018-05-04T18:11:37.664Z,9.83
2018-05-04T18:14:06.711Z,10.20
2018-05-04T18:16:34.906Z,11.73
2018-05-04T18:19:03.963Z,10.70
2018-05-04T18:21:33.140Z,16.57
2018-05-04T18:24:01.599Z,12.30
2018-05-04T18:26:29.809Z,14.67
2018-05-04T18:28:58.781Z,10.30
2018-05-04T18:31:27.729Z,17.87
2018-05-04T18:33:56.747Z,14.43
2018-05-04T18:36:25.021Z,21.50
2018-05-04T18:38:53.800Z,14.00
2018-05-04T18:41:22.728Z,14.27
2018-05-04T18:43:51.693Z,14.33
2018-05-04T18:46:19.868Z,13.80
2018-05-04T18:48:48.889Z,14.27
2018-05-04T18:51:17.778Z,14.00
2018-05-04T18:53:46.811Z,11.23
2018-05-04T18:56:15.068Z,13.87
2018-05-04T18:58:43.844Z,13.10
2018-05-04T19:01:12.713Z,17.97
2018-05-04T19:03:41.833Z,9.50
2018-05-04T19:06:09.982Z,15.60
2018-05-04T19:08:38.994Z,16.07
2018-05-04T19:11:07.890Z,12.10
2018-05-04T19:13:37.020Z,14.50
2018-05-04T19:16:05.251Z,12.83
2018-05-04T19:18:33.668Z,14.30
2018-05-04T19:21:02.359Z,13.03
2018-05-04T19:23:30.582Z,13.67
2018-05-04T19:25:59.458Z,12.77
2018-05-04T19:28:28.418Z,12.17
2018-05-04T19:30:57.571Z,13.40
2018-05-04T19:33:25.758Z,10.57
2018-05-04T19:35:54.670Z,10.70
2018-05-04T19:38:23.576Z,15.73
2018-05-04T19:40:52.569Z,12.90
2018-05-04T19:43:20.827Z,9.93
2018-05-04T19:45:49.619Z,9.13
2018-05-04T19:48:18.613Z,10.70
2018-05-04T19:50:47.587Z,10.57
2018-05-04T19:53:16.669Z,7.43
2018-05-04T19:55:45.081Z,12.17
2018-05-04T19:58:13.945Z,10.53
2018-05-04T20:00:42.655Z,12.07
2018-05-04T20:03:10.957Z,9.40
2018-05-04T20:05:39.856Z,12.33
2018-05-04T20:08:08.670Z,9.13
2018-05-04T20:10:36.890Z,12.77
2018-05-04T20:13:05.127Z,15.63
2018-05-04T20:15:33.824Z,11.67
2018-05-04T20:18:02.058Z,11.27
2018-05-04T20:20:30.234Z,8.87
2018-05-04T20:22:59.086Z,13.73
2018-05-04T20:25:27.304Z,12.63
2018-05-04T20:27:55.521Z,12.17
2018-05-04T20:30:24.336Z,12.90
2018-05-04T20:32:52.549Z,9.47
2018-05-04T20:35:20.776Z,14.07
2018-05-04T20:37:49.426Z,12.73
2018-05-04T20:40:17.668Z,14.80
2018-05-04T20:42:45.900Z,15.83
2018-05-04T20:45:14.545Z,14.90
2018-05-04T20:47:42.771Z,8.27
2018-05-04T20:50:10.956Z,10.10
2018-05-04T20:52:39.648Z,8.50
2018-05-04T20:55:07.852Z,11.67
2018-05-04T20:57:36.256Z,12.03
2018-05-04T21:00:04.844Z,8.63
2018-05-04T21:02:33.068Z,9.27
2018-05-04T21:05:01.450Z,10.90
2018-05-04T21:07:29.918Z,11.47
2018-05-04T21:09:58.381Z,9.50
2018-05-04T21:12:26.589Z,9.60
2018-05-04T21:14:55.232Z,14.20
2018-05-04T21:17:23.433Z,11.47
2018-05-04T21:19:51.736Z,10.30
2018-05-04T21:22:20.349Z,12.00
2018-05-04T21:24:48.570Z,8.60
2018-05-04T21:27:16.920Z,10.80
2018-05-04T21:29:45.373Z,11.13
2018-05-04T21:32:13.581Z,11.13
2018-05-04T21:34:42.101Z,11.87
2018-05-04T21:37:10.642Z,14.40
2018-05-04T21:39:38.847Z,10.13
2018-05-04T21:42:07.250Z,8.97
2018-05-04T21:44:35.752Z,9.97
2018-05-04T21:47:03.978Z,8.07
2018-05-04T21:49:32.458Z,12.10
2018-05-04T21:52:00.989Z,10.17
2018-05-04T21:54:29.192Z,11.83
2018-05-04T21:56:57.493Z,8.97
2018-05-04T21:59:26.170Z,11.97
2018-05-04T22:01:54.382Z,13.57
2018-05-04T22:04:22.737Z,13.23
2018-05-04T22:06:51.434Z,10.43
2018-05-04T22:09:19.638Z,12.07
2018-05-04T22:11:47.862Z,12.20
2018-05-04T22:14:16.516Z,15.47
2018-05-04T22:16:44.723Z,14.93
2018-05-04T22:19:13.152Z,12.13
2018-05-04T22:21:41.674Z,11.23
2018-05-04T22:24:09.875Z,9.23
2018-05-04T22:26:38.306Z,13.00
2018-05-04T22:29:06.875Z,9.13
2018-05-04T22:31:35.091Z,9.20
2018-05-04T22:34:03.490Z,9.63
2018-05-04T22:36:32.172Z,10.70
2018-05-04T22:39:00.371Z,9.67
2018-05-04T22:41:28.674Z,9.77
2018-05-04T22:43:57.184Z,12.13
2018-05-04T22:46:25.401Z,11.10
2018-05-04T22:48:53.787Z,16.87
2018-05-04T22:51:22.259Z,10.47
2018-05-04T22:53:50.493Z,15.73
2018-05-04T22:56:18.801Z,9.67
2018-05-04T22:58:47.509Z,11.47
2018-05-04T23:01:15.728Z,12.13
2018-05-04T23:03:44.065Z,12.00
2018-05-04T23:06:12.755Z,9.43
2018-05-04T23:08:41.200Z,12.43
2018-05-04T23:11:09.400Z,11.13
2018-05-04T23:13:37.977Z,11.20
2018-05-04T23:16:06.191Z,10.17
2018-05-04T23:18:34.532Z,13.83
2018-05-04T23:21:03.267Z,10.17
2018-05-04T23:23:31.431Z,11.27
2018-05-04T23:25:59.762Z,13.73
2018-05-04T23:28:28.279Z,13.87
2018-05-04T23:30:56.508Z,13.73
2018-05-04T23:33:24.757Z,14.00
2018-05-04T23:35:53.369Z,13.63
2018-05-04T23:38:21.605Z,11.87
2018-05-04T23:40:49.965Z,13.67
2018-05-04T23:43:18.619Z,10.90
2018-05-04T23:45:46.839Z,11.90
2018-05-04T23:48:15.150Z,9.77
2018-05-04T23:50:43.793Z,13.30
2018-05-04T23:53:12.014Z,12.53
2018-05-04T23:55:40.446Z,10.83
2018-05-04T23:58:08.928Z,10.80
